Time;durP1;ratioP1;P1;durP2;ratioP2;P2;SDS_P1;SDS_P2;PMS_P1;PMS_P2;Temp;Humidity;BMP_temperature;BMP_pressure;BME280_temperature;BME280_humidity;BME280_pressure;Samples;Min_cycle;Max_cycle;Signal;HPM_P1;HPM_P2
2022/11/18 00:01:12;;;;;;;0.40;0.40;;;15.00;90.60;;;;;;5091322;28;20329;-64
2022/11/18 00:04:01;;;;;;;1.60;1.60;;;14.90;90.60;;;;;;5096202;28;20591;-65
2022/11/18 00:06:49;;;;;;;0.40;0.40;;;14.90;90.50;;;;;;5096768;28;20192;-66
2022/11/18 00:09:38;;;;;;;0.40;0.40;;;14.90;90.50;;;;;;5095594;28;20223;-65
2022/11/18 00:15:37;;;;;;;2.35;2.25;;;14.90;90.60;;;;;;5047332;28;20347;-64
2022/11/18 00:18:26;;;;;;;0.50;0.50;;;14.90;90.50;;;;;;5096226;28;20281;-65
2022/11/18 00:21:16;;;;;;;0.40;0.40;;;14.90;90.60;;;;;;5095614;28;20204;-65
2022/11/18 00:24:05;;;;;;;0.40;0.40;;;14.90;90.60;;;;;;5095536;28;20672;-64
2022/11/18 00:26:53;;;;;;;0.40;0.40;;;14.90;90.70;;;;;;5095026;28;20279;-65
2022/11/18 00:29:42;;;;;;;0.40;0.40;;;14.90;90.60;;;;;;5095280;28;20212;-64
2022/11/18 00:32:30;;;;;;;0.40;0.40;;;14.80;90.60;;;;;;5095436;28;20700;-64
2022/11/18 00:35:18;;;;;;;0.40;0.40;;;14.90;90.60;;;;;;5095651;28;20279;-65
2022/11/18 00:38:07;;;;;;;0.50;0.50;;;14.90;90.50;;;;;;5095465;28;20285;-65
2022/11/18 00:41:00;;;;;;;0.40;0.40;;;14.90;90.50;;;;;;5094472;28;20695;-65
2022/11/18 00:43:47;;;;;;;0.40;0.40;;;14.90;90.50;;;;;;5095192;28;20272;-65
2022/11/18 00:46:35;;;;;;;0.40;0.40;;;14.90;90.50;;;;;;5095702;28;20200;-65
2022/11/18 00:49:23;;;;;;;0.40;0.40;;;14.90;90.40;;;;;;5094372;28;20679;-65
2022/11/18 00:52:11;;;;;;;0.40;0.40;;;14.80;90.60;;;;;;5094766;28;20220;-65
2022/11/18 00:55:00;;;;;;;0.40;0.40;;;14.90;90.60;;;;;;5095129;28;20282;-66
2022/11/18 00:57:48;;;;;;;0.40;0.40;;;14.80;90.10;;;;;;5094527;28;20235;-64
2022/11/18 01:00:36;;;;;;;0.40;0.40;;;14.90;90.70;;;;;;5094759;28;20208;-64
2022/11/18 01:03:25;;;;;;;0.40;0.40;;;14.90;90.40;;;;;;5094987;28;20354;-65
2022/11/18 01:06:13;;;;;;;0.40;0.40;;;14.90;90.60;;;;;;5094997;28;20326;-65
2022/11/18 01:09:01;;;;;;;0.40;0.40;;;14.80;90.50;;;;;;5094763;28;20721;-64
2022/11/18 01:14:57;;;;;;;0.40;0.40;;;14.80;90.40;;;;;;5093469;28;20283;-65
2022/11/18 01:17:45;;;;;;;0.40;0.40;;;14.80;90.50;;;;;;5094147;28;20330;-65
2022/11/18 01:20:34;;;;;;;0.40;0.40;;;14.80;90.40;;;;;;5094507;28;20196;-64
2022/11/18 01:23:22;;;;;;;0.40;0.40;;;14.80;90.40;;;;;;5094530;28;20224;-66
2022/11/18 01:26:11;;;;;;;0.40;0.40;;;14.80;90.20;;;;;;5093906;28;20258;-66
2022/11/18 01:29:01;;;;;;;0.40;0.40;;;14.80;90.60;;;;;;5094526;28;20642;-64
2022/11/18 01:31:49;;;;;;;0.40;0.40;;;14.80;90.20;;;;;;5094034;28;20220;-65
2022/11/18 01:34:57;;;;;;;0.40;0.40;;;14.80;90.40;;;;;;5094193;28;20202;-65
2022/11/18 01:37:45;;;;;;;0.40;0.40;;;14.80;90.50;;;;;;5094378;28;20279;-64
2022/11/18 01:40:34;;;;;;;0.40;0.40;;;14.80;90.50;;;;;;5094009;28;20321;-65
2022/11/18 01:43:23;;;;;;;0.40;0.40;;;14.80;90.30;;;;;;5093989;28;20308;-64
2022/11/18 01:46:12;;;;;;;0.40;0.40;;;14.70;90.60;;;;;;5093508;28;20229;-65
2022/11/18 01:49:05;;;;;;;0.40;0.40;;;14.80;90.50;;;;;;5094097;28;20232;-64
2022/11/18 01:51:57;;;;;;;0.50;0.50;;;14.70;90.50;;;;;;5094581;28;20252;-65
2022/11/18 01:54:51;;;;;;;4.25;4.05;;;14.70;90.30;;;;;;5093946;28;20280;-64
2022/11/18 01:57:40;;;;;;;0.40;0.40;;;14.80;90.70;;;;;;5093856;28;20281;-65
2022/11/18 02:00:28;;;;;;;0.40;0.40;;;14.70;90.40;;;;;;5093724;28;20232;-65
2022/11/18 02:03:18;;;;;;;0.40;0.40;;;14.70;90.50;;;;;;5093239;28;20317;-64
2022/11/18 02:06:08;;;;;;;0.40;0.40;;;14.70;90.30;;;;;;5093580;28;20317;-64
2022/11/18 02:08:56;;;;;;;0.40;0.40;;;14.70;90.40;;;;;;5094139;28;20341;-64
2022/11/18 02:11:52;;;;;;;0.40;0.40;;;14.70;89.70;;;;;;5093510;28;20252;-64
2022/11/18 02:14:45;;;;;;;0.40;0.40;;;14.70;90.10;;;;;;5095352;28;20275;-65
2022/11/18 02:17:44;;;;;;;0.40;0.40;;;14.70;90.20;;;;;;5095685;28;20283;-64
2022/11/18 02:20:37;;;;;;;0.40;0.40;;;14.70;90.40;;;;;;5092668;28;20204;-65
2022/11/18 02:23:54;;;;;;;0.40;0.40;;;14.70;90.10;;;;;;5092702;28;20688;-65
2022/11/18 02:27:14;;;;;;;0.40;0.40;;;14.70;90.40;;;;;;5093499;28;20208;-65
2022/11/18 02:30:07;;;;;;;0.40;0.40;;;14.70;90.10;;;;;;5093044;28;20222;-64
2022/11/18 02:32:58;;;;;;;0.40;0.40;;;14.70;90.20;;;;;;5093281;28;20244;-64
2022/11/18 02:35:52;;;;;;;0.40;0.40;;;14.70;90.50;;;;;;5093348;28;20200;-65
2022/11/18 02:38:44;;;;;;;0.40;0.40;;;14.70;90.00;;;;;;5087164;28;20200;-65
2022/11/18 02:41:36;;;;;;;0.40;0.40;;;14.70;90.30;;;;;;5104829;28;20523;-65
2022/11/18 02:44:26;;;;;;;0.40;0.40;;;14.70;90.00;;;;;;5113104;28;20278;-65
2022/11/18 02:47:18;;;;;;;0.40;0.40;;;14.70;90.40;;;;;;5113391;28;20244;-65
2022/11/18 02:50:11;;;;;;;0.40;0.40;;;14.60;90.20;;;;;;5112684;28;20219;-66
2022/11/18 02:53:02;;;;;;;0.40;0.40;;;14.60;90.40;;;;;;5111515;28;20218;-66
2022/11/18 02:55:52;;;;;;;0.40;0.40;;;14.60;90.10;;;;;;5113110;28;20637;-67
2022/11/18 02:58:40;;;;;;;0.40;0.40;;;14.60;90.40;;;;;;5113483;28;20269;-65
2022/11/18 03:01:31;;;;;;;0.40;0.40;;;14.60;90.00;;;;;;5112565;28;20274;-64
2022/11/18 03:04:22;;;;;;;0.40;0.40;;;14.60;90.20;;;;;;5111950;28;20202;-66
2022/11/18 03:07:16;;;;;;;0.40;0.40;;;14.60;90.20;;;;;;5112245;28;20695;-64
2022/11/18 03:10:05;;;;;;;0.40;0.40;;;14.60;90.00;;;;;;5112979;28;20195;-64
2022/11/18 03:13:04;;;;;;;0.40;0.40;;;14.60;90.00;;;;;;5112537;28;20718;-66
2022/11/18 03:16:00;;;;;;;0.40;0.40;;;14.60;90.00;;;;;;5112736;28;20304;-64
2022/11/18 03:18:55;;;;;;;0.60;0.60;;;14.60;90.20;;;;;;5112417;28;20622;-64
2022/11/18 03:21:52;;;;;;;0.60;0.60;;;14.50;91.00;;;;;;5112385;28;20272;-65
2022/11/18 03:24:44;;;;;;;0.40;0.40;;;14.60;89.90;;;;;;5112759;28;20278;-65
2022/11/18 03:27:38;;;;;;;0.40;0.40;;;14.60;90.00;;;;;;5110522;28;20199;-65
2022/11/18 03:30:26;;;;;;;0.40;0.40;;;14.60;90.00;;;;;;5111781;28;20222;-64
2022/11/18 03:33:21;;;;;;;0.40;0.40;;;14.60;89.70;;;;;;5112849;28;20294;-65
2022/11/18 03:36:12;;;;;;;0.40;0.40;;;14.60;89.90;;;;;;5110747;28;20227;-65
2022/11/18 03:39:05;;;;;;;0.40;0.40;;;14.60;89.30;;;;;;5111891;28;20200;-65
2022/11/18 03:41:59;;;;;;;0.40;0.40;;;14.60;89.50;;;;;;5111227;28;20283;-65
2022/11/18 03:44:52;;;;;;;0.40;0.40;;;14.60;89.80;;;;;;5111570;28;20229;-64
2022/11/18 03:47:43;;;;;;;0.40;0.40;;;14.60;89.40;;;;;;5112889;28;20609;-63
2022/11/18 03:50:35;;;;;;;0.60;0.60;;;14.70;89.60;;;;;;5112700;28;20237;-63
2022/11/18 03:53:27;;;;;;;0.70;0.70;;;14.70;89.40;;;;;;5112971;28;20251;-64
2022/11/18 03:56:19;;;;;;;0.50;0.50;;;14.60;89.00;;;;;;5112696;28;20290;-64
2022/11/18 03:59:11;;;;;;;0.40;0.40;;;14.70;89.20;;;;;;5113219;28;20537;-64
2022/11/18 04:02:06;;;;;;;1.20;1.20;;;14.60;89.70;;;;;;5111195;28;20215;-64
2022/11/18 04:04:56;;;;;;;0.40;0.40;;;14.60;89.70;;;;;;5113337;28;20199;-64
2022/11/18 04:07:53;;;;;;;0.40;0.40;;;14.80;89.70;;;;;;5113404;28;20199;-63
2022/11/18 04:10:47;;;;;;;0.40;0.40;;;14.60;89.60;;;;;;5111877;28;20202;-64
2022/11/18 04:13:37;;;;;;;0.40;0.40;;;14.60;89.80;;;;;;5111495;28;20296;-63
2022/11/18 04:16:25;;;;;;;0.40;0.40;;;14.70;88.90;;;;;;5112818;28;20324;-64
2022/11/18 04:19:13;;;;;;;0.40;0.40;;;14.60;89.00;;;;;;5111465;28;20203;-63
2022/11/18 04:22:01;;;;;;;0.40;0.40;;;14.60;89.20;;;;;;5111935;28;20294;-64
2022/11/18 04:24:49;;;;;;;0.40;0.40;;;14.60;89.00;;;;;;5112060;28;20209;-64
2022/11/18 04:27:38;;;;;;;0.40;0.40;;;14.60;88.70;;;;;;5112194;28;20200;-64
2022/11/18 04:30:27;;;;;;;0.50;0.50;;;14.60;89.90;;;;;;5111895;28;20199;-64
2022/11/18 04:33:15;;;;;;;0.40;0.40;;;14.60;89.60;;;;;;5113218;28;20657;-63
2022/11/18 04:36:04;;;;;;;0.50;0.50;;;14.50;89.10;;;;;;5111615;28;20199;-64
2022/11/18 04:38:52;;;;;;;0.40;0.40;;;14.50;89.30;;;;;;5111155;28;20200;-64
2022/11/18 04:41:55;;;;;;;0.40;0.40;;;14.50;88.90;;;;;;5111950;28;20199;-64
2022/11/18 04:44:43;;;;;;;0.40;0.40;;;14.50;88.90;;;;;;5101860;22;20239;-65
2022/11/18 04:47:32;;;;;;;0.40;0.40;;;14.50;89.10;;;;;;5073041;28;20207;-69
2022/11/18 04:50:20;;;;;;;0.80;0.80;;;14.50;89.40;;;;;;5074198;28;20322;-65
2022/11/18 04:53:08;;;;;;;0.40;0.40;;;14.40;89.00;;;;;;5076124;28;20224;-66
2022/11/18 04:55:56;;;;;;;2.80;2.15;;;14.50;89.30;;;;;;5075662;28;20256;-65
2022/11/18 04:58:44;;;;;;;0.40;0.40;;;14.40;88.30;;;;;;5074220;28;20266;-65
2022/11/18 05:01:33;;;;;;;0.40;0.40;;;14.50;89.30;;;;;;5074329;28;20192;-68
2022/11/18 05:04:24;;;;;;;0.40;0.40;;;14.40;89.10;;;;;;5075393;28;20221;-66
2022/11/18 05:07:14;;;;;;;0.40;0.40;;;14.40;89.70;;;;;;5075143;28;20204;-66
2022/11/18 05:10:02;;;;;;;0.40;0.40;;;14.40;89.10;;;;;;5075305;28;20276;-66
2022/11/18 05:12:51;;;;;;;0.50;0.50;;;14.40;91.10;;;;;;5074734;28;20252;-66
2022/11/18 05:15:39;;;;;;;0.40;0.40;;;14.40;89.60;;;;;;5075159;28;20354;-67
2022/11/18 05:18:27;;;;;;;0.40;0.40;;;14.50;88.80;;;;;;5073390;28;20222;-66
2022/11/18 05:21:16;;;;;;;0.40;0.40;;;14.50;89.30;;;;;;5073627;28;20201;-66
2022/11/18 05:24:05;;;;;;;0.40;0.40;;;14.50;88.60;;;;;;5075092;28;20255;-67
2022/11/18 05:26:54;;;;;;;0.40;0.40;;;14.50;88.60;;;;;;5075817;28;20871;-66
2022/11/18 05:29:42;;;;;;;0.40;0.40;;;14.50;88.60;;;;;;5073917;28;20232;-66
2022/11/18 05:32:30;;;;;;;0.40;0.40;;;14.50;87.80;;;;;;5073594;28;20299;-65
2022/11/18 05:35:18;;;;;;;0.40;0.40;;;14.60;88.60;;;;;;5074498;28;20711;-66
2022/11/18 05:38:08;;;;;;;0.40;0.40;;;14.50;88.10;;;;;;5073389;28;20323;-65
2022/11/18 05:40:56;;;;;;;0.50;0.50;;;14.50;88.20;;;;;;5068628;28;20583;-65
2022/11/18 05:43:43;;;;;;;0.50;0.50;;;14.50;88.80;;;;;;5072697;28;20220;-66
2022/11/18 05:46:32;;;;;;;0.40;0.40;;;14.50;88.40;;;;;;5073583;28;20201;-66
2022/11/18 05:49:20;;;;;;;0.40;0.40;;;14.50;88.30;;;;;;5072369;28;20196;-65
2022/11/18 05:52:08;;;;;;;1.73;1.63;;;14.50;88.60;;;;;;5074382;28;20347;-65
2022/11/18 05:54:57;;;;;;;0.40;0.40;;;14.60;88.30;;;;;;5069136;28;20216;-65
2022/11/18 05:57:45;;;;;;;0.40;0.40;;;14.50;88.70;;;;;;5072975;28;20207;-66
2022/11/18 06:00:34;;;;;;;33.87;2.97;;;14.50;88.60;;;;;;5073157;28;20204;-65
2022/11/18 06:03:26;;;;;;;0.40;0.40;;;14.50;88.40;;;;;;5072177;28;20259;-65
2022/11/18 06:06:21;;;;;;;0.40;0.40;;;14.40;88.40;;;;;;5073990;28;20204;-65
2022/11/18 06:09:10;;;;;;;0.40;0.40;;;14.50;88.70;;;;;;5072954;28;20211;-65
2022/11/18 06:12:02;;;;;;;1.38;1.38;;;14.30;88.70;;;;;;5074024;28;20217;-65
2022/11/18 06:14:55;;;;;;;0.40;0.40;;;14.50;88.20;;;;;;5073355;28;20720;-65
2022/11/18 06:17:48;;;;;;;0.40;0.40;;;14.40;88.90;;;;;;5072212;28;20212;-65
2022/11/18 06:20:38;;;;;;;0.80;0.80;;;14.50;88.70;;;;;;5073656;28;20232;-65
2022/11/18 06:23:28;;;;;;;0.40;0.40;;;14.40;88.30;;;;;;5072428;28;20681;-65
2022/11/18 06:26:18;;;;;;;0.40;0.40;;;14.40;88.60;;;;;;5073509;28;20279;-65
2022/11/18 06:29:09;;;;;;;0.50;0.50;;;14.30;88.30;;;;;;5072188;28;20234;-66
2022/11/18 06:31:57;;;;;;;0.40;0.40;;;14.30;87.80;;;;;;5073980;28;20220;-65
2022/11/18 06:34:45;;;;;;;0.40;0.40;;;14.30;88.20;;;;;;5073648;28;20224;-65
2022/11/18 06:37:34;;;;;;;1.30;1.30;;;14.30;89.00;;;;;;5072501;28;20211;-64
2022/11/18 06:40:22;;;;;;;0.50;0.50;;;14.30;88.50;;;;;;5072938;28;20279;-67
2022/11/18 06:49:24;;;;;;;0.50;0.50;;;14.30;87.70;;;;;;5072679;28;20342;-66
2022/11/18 06:52:12;;;;;;;0.85;0.85;;;14.30;88.60;;;;;;5073103;28;20216;-66
2022/11/18 06:55:00;;;;;;;0.40;0.40;;;14.30;88.90;;;;;;5073561;28;20201;-66
2022/11/18 06:57:48;;;;;;;0.40;0.40;;;14.30;88.30;;;;;;5072266;28;20204;-65
2022/11/18 07:00:36;;;;;;;0.40;0.40;;;14.40;87.80;;;;;;5070989;28;20647;-65
2022/11/18 07:03:25;;;;;;;0.40;0.40;;;14.40;88.10;;;;;;5071905;28;20235;-67
2022/11/18 07:06:15;;;;;;;28.80;8.10;;;14.50;88.20;;;;;;5072911;28;20207;-66
2022/11/18 07:09:06;;;;;;;0.40;0.40;;;14.50;88.10;;;;;;5073623;28;20288;-65
2022/11/18 07:11:54;;;;;;;2.85;2.08;;;14.50;87.60;;;;;;5072486;28;20210;-65
2022/11/18 07:14:42;;;;;;;0.40;0.40;;;14.50;87.50;;;;;;5073872;28;20296;-64
2022/11/18 07:17:30;;;;;;;0.40;0.40;;;14.60;87.50;;;;;;5072557;28;20288;-66
2022/11/18 07:20:20;;;;;;;0.80;0.80;;;14.60;87.40;;;;;;5072713;28;20579;-66
2022/11/18 07:23:08;;;;;;;0.40;0.40;;;14.60;87.10;;;;;;5071811;28;20685;-66
2022/11/18 07:25:56;;;;;;;0.40;0.40;;;14.60;86.30;;;;;;5068271;28;20283;-66
2022/11/18 07:28:44;;;;;;;0.40;0.40;;;14.60;87.20;;;;;;5072210;28;20319;-67
2022/11/18 07:31:32;;;;;;;0.40;0.40;;;14.60;86.90;;;;;;5073484;28;20192;-66
2022/11/18 07:34:20;;;;;;;0.40;0.40;;;14.70;86.70;;;;;;5071902;28;20672;-66
2022/11/18 07:37:10;;;;;;;0.50;0.50;;;14.60;86.80;;;;;;5072261;28;20200;-66
2022/11/18 07:39:58;;;;;;;0.40;0.40;;;14.60;86.80;;;;;;5070906;28;20207;-65
2022/11/18 07:42:46;;;;;;;0.40;0.40;;;14.70;87.60;;;;;;5072496;28;20201;-66
2022/11/18 07:45:35;;;;;;;0.40;0.40;;;14.50;86.70;;;;;;5071971;28;20220;-66
2022/11/18 07:48:23;;;;;;;0.40;0.40;;;14.60;87.10;;;;;;5071683;28;20288;-65
2022/11/18 07:51:12;;;;;;;0.40;0.40;;;14.60;87.00;;;;;;5071115;28;20205;-67
2022/11/18 07:54:06;;;;;;;0.40;0.40;;;14.60;87.80;;;;;;5072096;28;20679;-66
2022/11/18 07:56:54;;;;;;;0.93;0.93;;;14.50;87.10;;;;;;5071919;28;20280;-66
2022/11/18 07:59:42;;;;;;;0.50;0.50;;;14.50;87.40;;;;;;5071634;28;20196;-65
2022/11/18 08:02:30;;;;;;;0.40;0.40;;;14.50;86.70;;;;;;5070935;28;20284;-65
2022/11/18 08:05:18;;;;;;;0.40;0.40;;;14.50;87.40;;;;;;5071059;28;20207;-66
2022/11/18 08:08:06;;;;;;;0.50;0.50;;;14.40;86.90;;;;;;5071459;28;20572;-65
2022/11/18 08:10:57;;;;;;;0.40;0.40;;;14.40;86.90;;;;;;5070870;28;20197;-66
2022/11/18 08:13:45;;;;;;;0.40;0.40;;;14.40;87.40;;;;;;5065177;28;20220;-64
2022/11/18 08:16:33;;;;;;;0.40;0.40;;;14.40;86.70;;;;;;5072252;28;20204;-65
2022/11/18 08:19:21;;;;;;;0.90;0.88;;;14.40;86.80;;;;;;5071091;28;20696;-66
2022/11/18 08:22:09;;;;;;;0.40;0.40;;;14.30;87.20;;;;;;5073159;28;20211;-65
2022/11/18 08:24:57;;;;;;;0.40;0.40;;;14.30;86.60;;;;;;5075068;28;20243;-65
2022/11/18 08:27:47;;;;;;;0.40;0.40;;;14.40;87.00;;;;;;5075118;28;20343;-66
2022/11/18 08:30:35;;;;;;;0.40;0.40;;;14.30;87.20;;;;;;5075596;28;20205;-67
2022/11/18 08:33:24;;;;;;;0.47;0.47;;;14.30;86.90;;;;;;5075158;28;20724;-67
2022/11/18 08:36:15;;;;;;;0.45;0.45;;;14.20;87.20;;;;;;5072661;28;20671;-66
2022/11/18 08:39:05;;;;;;;0.40;0.40;;;14.20;87.20;;;;;;5073217;28;20624;-66
2022/11/18 08:41:54;;;;;;;0.40;0.40;;;14.20;87.00;;;;;;5075140;28;20686;-64
2022/11/18 08:44:43;;;;;;;0.40;0.40;;;14.20;87.50;;;;;;5055982;28;20312;-67
2022/11/18 08:47:31;;;;;;;0.70;0.70;;;14.20;87.70;;;;;;5054972;28;20208;-65
2022/11/18 08:50:19;;;;;;;0.40;0.40;;;14.20;87.40;;;;;;5072589;28;20306;-66
2022/11/18 08:53:07;;;;;;;0.40;0.40;;;14.20;88.10;;;;;;5074768;28;20216;-65
2022/11/18 08:55:56;;;;;;;0.40;0.40;;;14.20;88.10;;;;;;5074867;28;20228;-66
2022/11/18 08:58:45;;;;;;;0.40;0.40;;;14.30;88.00;;;;;;5054838;28;20280;-66
2022/11/18 09:01:35;;;;;;;0.63;0.63;;;14.30;87.90;;;;;;5055266;28;20202;-66
2022/11/18 09:04:23;;;;;;;2.83;2.58;;;14.30;86.70;;;;;;5054944;28;20685;-66
2022/11/18 09:07:12;;;;;;;0.40;0.40;;;14.40;87.10;;;;;;5055558;28;20209;-66
2022/11/18 09:10:00;;;;;;;0.40;0.40;;;14.30;87.00;;;;;;5054805;28;20202;-66
2022/11/18 09:12:48;;;;;;;0.40;0.40;;;14.40;92.70;;;;;;5059302;28;20200;-66
2022/11/18 09:15:36;;;;;;;0.40;0.40;;;14.30;86.00;;;;;;5074997;28;20246;-66
2022/11/18 09:18:25;;;;;;;0.40;0.40;;;14.40;86.60;;;;;;5074237;28;20207;-65
2022/11/18 09:21:13;;;;;;;0.40;0.40;;;14.40;86.10;;;;;;5074808;28;20737;-68
2022/11/18 09:24:03;;;;;;;0.40;0.40;;;14.40;85.30;;;;;;5073455;28;20636;-66
2022/11/18 09:26:52;;;;;;;0.40;0.40;;;14.40;86.00;;;;;;5073819;28;20262;-66
2022/11/18 09:29:40;;;;;;;0.40;0.40;;;14.40;86.00;;;;;;5073319;28;20274;-65
2022/11/18 09:32:28;;;;;;;0.40;0.40;;;14.40;85.30;;;;;;5074503;28;20193;-66
2022/11/18 09:35:18;;;;;;;0.40;0.40;;;14.40;85.40;;;;;;5073610;28;20220;-66
2022/11/18 09:38:06;;;;;;;0.50;0.50;;;14.40;85.50;;;;;;5074170;28;20272;-66
2022/11/18 09:41:04;;;;;;;2.92;2.67;;;14.40;85.40;;;;;;5073653;28;20276;-65
2022/11/18 09:44:03;;;;;;;0.40;0.40;;;14.40;85.20;;;;;;5074679;28;20220;-66
2022/11/18 09:47:01;;;;;;;0.40;0.40;;;14.40;84.90;;;;;;5073952;28;20254;-66
2022/11/18 09:49:49;;;;;;;0.50;0.50;;;14.30;85.10;;;;;;5073073;28;20284;-65
2022/11/18 09:52:43;;;;;;;0.40;0.40;;;14.30;85.50;;;;;;5073580;28;20197;-67
2022/11/18 09:55:34;;;;;;;0.52;0.52;;;14.30;85.20;;;;;;5074457;28;20216;-65
2022/11/18 09:58:28;;;;;;;0.40;0.40;;;14.30;85.40;;;;;;5074203;28;20204;-65
2022/11/18 10:01:20;;;;;;;0.40;0.40;;;14.30;84.80;;;;;;5073293;28;20754;-66
2022/11/18 10:04:14;;;;;;;0.40;0.40;;;14.30;84.60;;;;;;5073593;28;20213;-67
2022/11/18 10:07:12;;;;;;;0.40;0.40;;;14.30;85.00;;;;;;5072636;28;20693;-65
2022/11/18 10:10:05;;;;;;;0.40;0.40;;;14.20;85.30;;;;;;5073704;28;20200;-66
2022/11/18 10:13:00;;;;;;;0.40;0.40;;;14.10;84.40;;;;;;5073167;28;20201;-66
2022/11/18 10:15:59;;;;;;;0.40;0.40;;;14.20;84.80;;;;;;5074785;28;20248;-65
2022/11/18 10:18:54;;;;;;;0.40;0.40;;;14.20;85.70;;;;;;5072957;28;20211;-65
2022/11/18 10:22:00;;;;;;;0.40;0.40;;;14.30;86.00;;;;;;5072559;28;20204;-66
2022/11/18 10:24:50;;;;;;;0.40;0.40;;;14.30;85.10;;;;;;5072733;28;20750;-66
2022/11/18 10:27:41;;;;;;;0.40;0.40;;;14.20;85.30;;;;;;5072323;28;20282;-66
2022/11/18 10:30:31;;;;;;;0.40;0.40;;;14.20;85.40;;;;;;5073212;28;20200;-66
2022/11/18 10:33:25;;;;;;;0.40;0.40;;;14.20;83.80;;;;;;5053385;28;20686;-65
2022/11/18 10:36:27;;;;;;;0.40;0.40;;;14.10;85.10;;;;;;5052106;28;20298;-66
2022/11/18 10:39:16;;;;;;;1.27;1.27;;;14.20;85.40;;;;;;5052084;28;20278;-66
2022/11/18 10:42:06;;;;;;;0.40;0.40;;;14.20;84.90;;;;;;5053664;28;20197;-66
2022/11/18 10:44:56;;;;;;;2.95;2.70;;;14.10;84.40;;;;;;5092648;22;20236;-65
2022/11/18 10:48:01;;;;;;;0.40;0.40;;;14.10;85.40;;;;;;5072516;28;20204;-65
2022/11/18 10:50:50;;;;;;;0.40;0.40;;;14.10;85.50;;;;;;5072112;28;20240;-65
2022/11/18 10:53:43;;;;;;;0.40;0.40;;;14.10;85.10;;;;;;5072864;28;20220;-65
2022/11/18 10:56:45;;;;;;;0.40;0.40;;;14.10;85.60;;;;;;5072346;28;20727;-65
2022/11/18 10:59:39;;;;;;;0.40;0.40;;;14.10;84.70;;;;;;5064651;28;20249;-67
2022/11/18 11:02:31;;;;;;;0.40;0.40;;;14.10;84.40;;;;;;5072828;28;20201;-65
2022/11/18 11:05:22;;;;;;;1.48;1.48;;;14.10;84.60;;;;;;5071776;28;20655;-67
2022/11/18 11:08:20;;;;;;;0.40;0.40;;;14.10;84.80;;;;;;5072658;28;20287;-65
2022/11/18 11:11:27;;;;;;;0.40;0.40;;;14.10;84.70;;;;;;5071868;28;20250;-66
2022/11/18 11:14:22;;;;;;;0.40;0.40;;;14.10;84.10;;;;;;5072503;28;20270;-65
2022/11/18 11:17:13;;;;;;;0.40;0.40;;;14.10;84.80;;;;;;5072487;28;20275;-69
2022/11/18 11:20:06;;;;;;;0.40;0.40;;;14.00;84.30;;;;;;5072346;28;20205;-65
2022/11/18 11:22:55;;;;;;;0.40;0.40;;;14.00;84.20;;;;;;5066877;28;20197;-65
2022/11/18 11:25:47;;;;;;;0.40;0.40;;;14.00;84.10;;;;;;5072600;28;20200;-65
2022/11/18 11:29:00;;;;;;;0.40;0.40;;;14.00;83.20;;;;;;5071458;28;20200;-65
2022/11/18 11:31:58;;;;;;;0.40;0.40;;;13.90;84.90;;;;;;5072467;28;20236;-65
2022/11/18 11:34:52;;;;;;;0.40;0.40;;;14.00;84.90;;;;;;5072031;28;20232;-65
2022/11/18 11:37:51;;;;;;;0.50;0.50;;;14.00;85.20;;;;;;5072751;28;20279;-65
2022/11/18 11:40:42;;;;;;;0.40;0.40;;;14.00;85.90;;;;;;5070859;28;20330;-65
2022/11/18 11:43:42;;;;;;;0.40;0.40;;;14.10;86.60;;;;;;5072677;28;20228;-65
2022/11/18 11:46:40;;;;;;;0.50;0.50;;;14.10;85.10;;;;;;5070992;28;20628;-65
2022/11/18 11:49:38;;;;;;;0.40;0.40;;;14.10;84.50;;;;;;5072758;28;20228;-65
2022/11/18 11:52:34;;;;;;;0.40;0.40;;;14.10;84.40;;;;;;5071196;28;20214;-65
2022/11/18 11:55:28;;;;;;;0.40;0.40;;;14.10;83.90;;;;;;5071889;28;20347;-65
2022/11/18 11:58:32;;;;;;;0.40;0.40;;;14.10;83.90;;;;;;5074257;28;20306;-65
2022/11/18 12:01:30;;;;;;;0.40;0.40;;;14.10;83.40;;;;;;5076766;28;20204;-65
2022/11/18 12:04:29;;;;;;;0.40;0.40;;;14.20;84.10;;;;;;5076820;28;20217;-66
2022/11/18 12:07:21;;;;;;;1.47;1.37;;;14.10;83.80;;;;;;5076518;28;20776;-65
2022/11/18 12:10:36;;;;;;;0.40;0.40;;;14.20;84.60;;;;;;5075408;28;20760;-66
2022/11/18 12:13:36;;;;;;;0.40;0.40;;;14.20;83.70;;;;;;5075947;28;20226;-66
2022/11/18 12:16:31;;;;;;;0.40;0.40;;;14.20;83.30;;;;;;5075923;28;20307;-65
2022/11/18 12:19:22;;;;;;;0.40;0.40;;;14.20;83.70;;;;;;5074756;28;20239;-65
2022/11/18 12:22:10;;;;;;;0.40;0.40;;;14.20;84.40;;;;;;5075976;28;20204;-66
2022/11/18 12:25:28;;;;;;;0.40;0.40;;;14.10;83.80;;;;;;5075090;28;20522;-66
2022/11/18 12:28:23;;;;;;;0.40;0.40;;;14.10;83.90;;;;;;5075565;28;20321;-65
2022/11/18 12:31:35;;;;;;;0.40;0.40;;;14.10;83.50;;;;;;5075105;28;20213;-65
2022/11/18 12:34:33;;;;;;;0.40;0.40;;;14.10;83.10;;;;;;5074544;28;20227;-65
2022/11/18 12:37:57;;;;;;;0.40;0.40;;;14.10;82.70;;;;;;5074765;28;20621;-66
2022/11/18 12:40:47;;;;;;;0.40;0.40;;;14.10;83.60;;;;;;5074949;28;20283;-66
2022/11/18 12:44:04;;;;;;;0.40;0.40;;;14.10;84.00;;;;;;5074344;28;20238;-65
2022/11/18 12:46:55;;;;;;;0.40;0.40;;;14.10;83.20;;;;;;5074857;28;20279;-65
2022/11/18 12:50:12;;;;;;;0.40;0.40;;;14.00;82.90;;;;;;5074890;28;20287;-66
2022/11/18 12:53:00;;;;;;;0.40;0.40;;;14.00;82.90;;;;;;5074668;28;20614;-65
2022/11/18 12:55:48;;;;;;;0.40;0.40;;;14.00;83.30;;;;;;5075054;28;20244;-65
2022/11/18 12:58:37;;;;;;;0.60;0.60;;;14.00;83.40;;;;;;5074884;28;20346;-65
2022/11/18 13:01:27;;;;;;;0.40;0.40;;;14.00;84.00;;;;;;5074894;28;20435;-65
2022/11/18 13:04:19;;;;;;;0.40;0.40;;;14.00;83.90;;;;;;5075407;28;20250;-65
2022/11/18 13:08:11;;;;;;;0.40;0.40;;;14.00;84.30;;;;;;5074933;28;20203;-65
2022/11/18 13:10:24;;;;;;;0.40;0.40;;;14.00;85.20;;;;;;5074398;28;20204;-66
2022/11/18 13:13:22;;;;;;;0.80;0.80;;;14.00;82.90;;;;;;5074682;28;20672;-66
2022/11/18 13:19:26;;;;;;;0.40;0.40;;;14.10;83.20;;;;;;5074326;28;20207;-65
2022/11/18 13:25:24;;;;;;;0.40;0.40;;;14.10;83.30;;;;;;5074466;28;20323;-65
2022/11/18 13:28:25;;;;;;;0.40;0.40;;;14.10;82.40;;;;;;5074438;28;20673;-66
2022/11/18 13:31:21;;;;;;;0.40;0.40;;;14.10;82.30;;;;;;5076497;28;20330;-65
2022/11/18 13:34:17;;;;;;;0.40;0.40;;;14.10;81.90;;;;;;5095295;28;20297;-65
2022/11/18 13:37:17;;;;;;;0.40;0.40;;;14.10;82.40;;;;;;5094022;28;20212;-65
2022/11/18 13:40:18;;;;;;;0.40;0.40;;;14.10;82.00;;;;;;5093413;28;20200;-65
2022/11/18 13:43:11;;;;;;;0.40;0.40;;;14.10;82.10;;;;;;5093555;28;20195;-65
2022/11/18 13:46:01;;;;;;;0.40;0.40;;;14.10;82.30;;;;;;5093394;28;20279;-65
2022/11/18 13:48:53;;;;;;;0.40;0.40;;;14.10;82.40;;;;;;5093648;28;20199;-65
2022/11/18 13:51:41;;;;;;;0.40;0.40;;;14.10;82.20;;;;;;5093029;28;20202;-66
2022/11/18 13:54:31;;;;;;;0.40;0.40;;;14.10;82.60;;;;;;5094418;28;20228;-66
2022/11/18 13:57:22;;;;;;;0.40;0.40;;;14.10;81.60;;;;;;5092972;28;20223;-66
2022/11/18 14:00:21;;;;;;;0.40;0.40;;;14.10;82.50;;;;;;5093888;28;20330;-66
2022/11/18 14:03:23;;;;;;;0.40;0.40;;;14.00;88.60;;;;;;5094894;28;20608;-66
2022/11/18 14:06:11;;;;;;;0.40;0.40;;;14.00;81.10;;;;;;5092637;28;20412;-65
2022/11/18 14:09:06;;;;;;;0.40;0.40;;;14.00;81.10;;;;;;5093934;28;20206;-65
2022/11/18 14:12:02;;;;;;;0.40;0.40;;;14.00;82.40;;;;;;5093505;28;20196;-66
2022/11/18 14:14:50;;;;;;;0.40;0.40;;;14.00;81.10;;;;;;5093547;28;20216;-66
2022/11/18 14:17:38;;;;;;;0.60;0.60;;;14.00;82.40;;;;;;5092982;28;20220;-65
2022/11/18 14:20:28;;;;;;;0.40;0.40;;;13.90;81.50;;;;;;5092105;28;20667;-65
2022/11/18 14:23:17;;;;;;;0.40;0.40;;;13.90;82.40;;;;;;5093200;28;20307;-65
2022/11/18 14:26:07;;;;;;;0.40;0.40;;;13.90;81.70;;;;;;5093160;28;20275;-65
2022/11/18 14:28:58;;;;;;;0.40;0.40;;;13.90;82.40;;;;;;5092716;28;20683;-65
2022/11/18 14:32:03;;;;;;;0.40;0.40;;;13.90;81.80;;;;;;5085574;28;20325;-65
2022/11/18 14:34:58;;;;;;;0.98;0.98;;;13.80;81.40;;;;;;5084592;28;20250;-65
2022/11/18 14:37:46;;;;;;;1.20;1.13;;;13.80;82.00;;;;;;5092901;28;20226;-65
2022/11/18 14:40:35;;;;;;;0.47;0.47;;;13.80;81.60;;;;;;5093661;28;20287;-66
2022/11/18 14:43:24;;;;;;;0.50;0.50;;;13.80;82.30;;;;;;5092881;28;20365;-65
2022/11/18 14:46:17;;;;;;;0.40;0.40;;;13.80;82.70;;;;;;5092244;28;20318;-65
2022/11/18 14:49:12;;;;;;;0.40;0.40;;;13.80;82.40;;;;;;5092789;28;20418;-66
2022/11/18 14:52:01;;;;;;;0.40;0.40;;;13.80;82.70;;;;;;5092315;28;20698;-65
2022/11/18 14:54:50;;;;;;;0.40;0.40;;;13.80;82.40;;;;;;5091776;28;20220;-65
2022/11/18 14:57:38;;;;;;;0.40;0.40;;;13.80;82.10;;;;;;5091841;28;20302;-65
2022/11/18 15:00:27;;;;;;;0.40;0.40;;;13.80;82.10;;;;;;5092222;28;20287;-66
2022/11/18 15:03:16;;;;;;;0.40;0.40;;;13.80;80.70;;;;;;5093040;28;20204;-65
2022/11/18 15:06:10;;;;;;;0.40;0.40;;;13.80;81.60;;;;;;5091632;28;20275;-65
2022/11/18 15:08:58;;;;;;;0.40;0.40;;;13.80;81.30;;;;;;5091839;28;20203;-65
2022/11/18 15:11:46;;;;;;;0.40;0.40;;;13.80;81.90;;;;;;5091431;28;20278;-65
2022/11/18 15:14:35;;;;;;;0.40;0.40;;;13.80;82.40;;;;;;5091531;28;20714;-65